sensor_id;sensor_type;location;lat;lon;timestamp;pressure;altitude;pressure_sealevel;temperature;humidity
55517;BME280;41724;51.176;-0.708;2023-04-10T00:00:25;101081.80;;;14.65;49.85
55517;BME280;41724;51.176;-0.708;2023-04-10T00:02:52;101074.79;;;15.01;49.75
55517;BME280;41724;51.176;-0.708;2023-04-10T00:05:19;101072.05;;;14.99;49.15
55517;BME280;41724;51.176;-0.708;2023-04-10T00:07:46;101067.37;;;14.67;49.50
55517;BME280;41724;51.176;-0.708;2023-04-10T00:10:12;101055.60;;;14.90;50.30
55517;BME280;41724;51.176;-0.708;2023-04-10T00:12:40;101055.14;;;14.47;51.03
55517;BME280;41724;51.176;-0.708;2023-04-10T00:15:08;101054.80;;;14.65;50.05
55517;BME280;41724;51.176;-0.708;2023-04-10T00:17:35;101048.38;;;14.80;49.70
55517;BME280;41724;51.176;-0.708;2023-04-10T00:20:03;101044.27;;;15.01;50.19
55517;BME280;41724;51.176;-0.708;2023-04-10T00:22:30;101044.44;;;15.05;49.83
55517;BME280;41724;51.176;-0.708;2023-04-10T00:24:57;101040.05;;;15.41;49.07
55517;BME280;41724;51.176;-0.708;2023-04-10T00:27:24;101036.17;;;15.48;48.66
55517;BME280;41724;51.176;-0.708;2023-04-10T00:29:51;101034.02;;;15.45;49.52
55517;BME280;41724;51.176;-0.708;2023-04-10T00:32:18;101031.02;;;15.14;49.15
55517;BME280;41724;51.176;-0.708;2023-04-10T00:34:45;101030.85;;;15.61;48.44
55517;BME280;41724;51.176;-0.708;2023-04-10T00:37:13;101024.37;;;15.06;48.97
55517;BME280;41724;51.176;-0.708;2023-04-10T00:39:39;101023.00;;;15.08;50.33
55517;BME280;41724;51.176;-0.708;2023-04-10T00:42:06;101015.70;;;14.23;53.28
55517;BME280;41724;51.176;-0.708;2023-04-10T00:44:33;101018.89;;;13.97;54.07
55517;BME280;41724;51.176;-0.708;2023-04-10T00:47:00;101017.69;;;13.58;55.28
55517;BME280;41724;51.176;-0.708;2023-04-10T00:49:28;101010.93;;;14.51;53.96
55517;BME280;41724;51.176;-0.708;2023-04-10T00:51:56;101010.78;;;14.36;53.34
55517;BME280;41724;51.176;-0.708;2023-04-10T00:54:23;101016.73;;;13.53;56.19
55517;BME280;41724;51.176;-0.708;2023-04-10T00:56:51;101012.21;;;12.91;60.65
55517;BME280;41724;51.176;-0.708;2023-04-10T00:59:18;101006.31;;;12.92;60.86
55517;BME280;41724;51.176;-0.708;2023-04-10T01:01:45;101004.92;;;12.90;61.53
55517;BME280;41724;51.176;-0.708;2023-04-10T01:04:13;101006.20;;;12.65;63.00
55517;BME280;41724;51.176;-0.708;2023-04-10T01:06:52;101003.88;;;11.88;66.65
55517;BME280;41724;51.176;-0.708;2023-04-10T01:09:34;100998.23;;;11.36;69.49
55517;BME280;41724;51.176;-0.708;2023-04-10T01:12:15;100995.14;;;11.17;71.92
55517;BME280;41724;51.176;-0.708;2023-04-10T01:14:50;100994.14;;;11.31;73.88
55517;BME280;41724;51.176;-0.708;2023-04-10T01:17:25;100989.12;;;11.21;75.38
55517;BME280;41724;51.176;-0.708;2023-04-10T01:20:03;100989.13;;;11.43;75.00
55517;BME280;41724;51.176;-0.708;2023-04-10T01:22:35;100981.37;;;11.42;74.87
55517;BME280;41724;51.176;-0.708;2023-04-10T01:25:42;100983.76;;;11.53;74.13
55517;BME280;41724;51.176;-0.708;2023-04-10T01:31:01;100975.16;;;11.68;76.87
55517;BME280;41724;51.176;-0.708;2023-04-10T01:33:44;100974.79;;;11.37;77.71
55517;BME280;41724;51.176;-0.708;2023-04-10T01:36:19;100974.35;;;11.08;79.95
55517;BME280;41724;51.176;-0.708;2023-04-10T01:38:49;100971.51;;;11.67;79.62
55517;BME280;41724;51.176;-0.708;2023-04-10T01:41:21;100974.76;;;11.29;78.23
55517;BME280;41724;51.176;-0.708;2023-04-10T01:43:51;100974.74;;;11.73;78.62
55517;BME280;41724;51.176;-0.708;2023-04-10T01:46:20;100971.51;;;11.51;80.54
55517;BME280;41724;51.176;-0.708;2023-04-10T01:48:49;100969.59;;;11.88;80.43
55517;BME280;41724;51.176;-0.708;2023-04-10T01:51:16;100964.52;;;11.89;79.86
55517;BME280;41724;51.176;-0.708;2023-04-10T01:53:44;100964.11;;;11.52;81.25
55517;BME280;41724;51.176;-0.708;2023-04-10T01:56:12;100957.93;;;11.84;81.16
55517;BME280;41724;51.176;-0.708;2023-04-10T01:58:40;100956.05;;;11.92;80.22
55517;BME280;41724;51.176;-0.708;2023-04-10T02:01:07;100951.22;;;11.16;83.26
55517;BME280;41724;51.176;-0.708;2023-04-10T02:03:34;100946.70;;;11.12;84.60
55517;BME280;41724;51.176;-0.708;2023-04-10T02:06:09;100944.04;;;11.80;83.15
55517;BME280;41724;51.176;-0.708;2023-04-10T02:08:47;100938.37;;;11.16;83.91
55517;BME280;41724;51.176;-0.708;2023-04-10T02:11:27;100940.16;;;10.95;85.52
55517;BME280;41724;51.176;-0.708;2023-04-10T02:13:59;100933.22;;;10.96;85.74
55517;BME280;41724;51.176;-0.708;2023-04-10T02:16:28;100931.79;;;11.23;84.13
55517;BME280;41724;51.176;-0.708;2023-04-10T02:18:58;100921.72;;;10.94;86.87
55517;BME280;41724;51.176;-0.708;2023-04-10T02:21:27;100916.54;;;10.40;89.98
55517;BME280;41724;51.176;-0.708;2023-04-10T02:23:56;100915.67;;;10.07;91.07
55517;BME280;41724;51.176;-0.708;2023-04-10T02:26:24;100908.12;;;10.77;90.39
55517;BME280;41724;51.176;-0.708;2023-04-10T02:28:51;100910.56;;;11.86;84.95
55517;BME280;41724;51.176;-0.708;2023-04-10T02:31:18;100905.18;;;11.35;86.14
55517;BME280;41724;51.176;-0.708;2023-04-10T02:33:45;100901.01;;;11.30;85.47
55517;BME280;41724;51.176;-0.708;2023-04-10T02:36:12;100901.66;;;11.82;83.28
55517;BME280;41724;51.176;-0.708;2023-04-10T02:38:39;100893.36;;;11.24;84.11
55517;BME280;41724;51.176;-0.708;2023-04-10T02:41:06;100893.36;;;11.49;85.30
55517;BME280;41724;51.176;-0.708;2023-04-10T02:43:34;100895.27;;;11.78;83.66
55517;BME280;41724;51.176;-0.708;2023-04-10T02:46:01;100901.19;;;11.36;85.64
55517;BME280;41724;51.176;-0.708;2023-04-10T02:48:28;100890.13;;;10.82;89.96
55517;BME280;41724;51.176;-0.708;2023-04-10T02:50:56;100885.09;;;11.15;86.77
55517;BME280;41724;51.176;-0.708;2023-04-10T02:53:23;100889.37;;;10.91;89.13
55517;BME280;41724;51.176;-0.708;2023-04-10T02:55:51;100889.10;;;11.38;85.94
55517;BME280;41724;51.176;-0.708;2023-04-10T02:58:18;100884.16;;;11.04;88.33
55517;BME280;41724;51.176;-0.708;2023-04-10T03:00:47;100879.30;;;10.96;88.41
55517;BME280;41724;51.176;-0.708;2023-04-10T03:03:14;100883.84;;;11.31;86.76
55517;BME280;41724;51.176;-0.708;2023-04-10T03:05:41;100878.61;;;10.93;89.38
55517;BME280;41724;51.176;-0.708;2023-04-10T03:08:09;100882.58;;;10.57;89.63
55517;BME280;41724;51.176;-0.708;2023-04-10T03:10:36;100876.49;;;10.81;89.06
55517;BME280;41724;51.176;-0.708;2023-04-10T03:13:03;100873.86;;;10.85;89.64
55517;BME280;41724;51.176;-0.708;2023-04-10T03:15:30;100870.22;;;11.28;89.06
55517;BME280;41724;51.176;-0.708;2023-04-10T03:17:57;100867.03;;;11.54;87.55
55517;BME280;41724;51.176;-0.708;2023-04-10T03:20:24;100874.51;;;10.57;89.57
55517;BME280;41724;51.176;-0.708;2023-04-10T03:22:51;100861.05;;;11.07;90.53
55517;BME280;41724;51.176;-0.708;2023-04-10T03:25:18;100858.78;;;11.01;89.78
55517;BME280;41724;51.176;-0.708;2023-04-10T03:27:45;100862.68;;;10.49;92.34
55517;BME280;41724;51.176;-0.708;2023-04-10T03:30:12;100864.18;;;10.53;93.17
55517;BME280;41724;51.176;-0.708;2023-04-10T03:32:39;100860.34;;;11.22;91.27
55517;BME280;41724;51.176;-0.708;2023-04-10T03:35:07;100863.24;;;10.20;95.05
55517;BME280;41724;51.176;-0.708;2023-04-10T03:37:34;100866.72;;;11.20;93.23
55517;BME280;41724;51.176;-0.708;2023-04-10T03:40:04;100853.81;;;10.25;94.62
55517;BME280;41724;51.176;-0.708;2023-04-10T03:42:32;100851.62;;;10.41;93.92
55517;BME280;41724;51.176;-0.708;2023-04-10T03:44:59;100855.84;;;10.43;94.73
55517;BME280;41724;51.176;-0.708;2023-04-10T03:47:26;100850.56;;;11.03;91.11
55517;BME280;41724;51.176;-0.708;2023-04-10T03:49:53;100845.84;;;10.47;95.86
55517;BME280;41724;51.176;-0.708;2023-04-10T03:52:20;100835.11;;;10.65;94.09
55517;BME280;41724;51.176;-0.708;2023-04-10T03:54:47;100830.86;;;10.64;94.06
55517;BME280;41724;51.176;-0.708;2023-04-10T03:57:14;100833.32;;;11.08;92.63
55517;BME280;41724;51.176;-0.708;2023-04-10T03:59:42;100826.75;;;10.53;93.64
55517;BME280;41724;51.176;-0.708;2023-04-10T04:02:09;100826.92;;;11.02;92.77
55517;BME280;41724;51.176;-0.708;2023-04-10T04:04:36;100825.20;;;11.20;91.05
55517;BME280;41724;51.176;-0.708;2023-04-10T04:07:03;100830.69;;;10.73;92.24
55517;BME280;41724;51.176;-0.708;2023-04-10T04:09:30;100833.85;;;11.17;91.39
55517;BME280;41724;51.176;-0.708;2023-04-10T04:11:57;100834.74;;;10.65;92.10
55517;BME280;41724;51.176;-0.708;2023-04-10T04:14:24;100830.27;;;10.44;96.45
55517;BME280;41724;51.176;-0.708;2023-04-10T04:16:51;100821.79;;;9.89;100.00
55517;BME280;41724;51.176;-0.708;2023-04-10T04:19:18;100817.49;;;9.82;100.00
55517;BME280;41724;51.176;-0.708;2023-04-10T04:21:46;100825.91;;;9.75;100.00
55517;BME280;41724;51.176;-0.708;2023-04-10T04:24:13;100827.95;;;10.01;100.00
55517;BME280;41724;51.176;-0.708;2023-04-10T04:26:40;100824.71;;;10.43;97.32
55517;BME280;41724;51.176;-0.708;2023-04-10T04:29:07;100819.63;;;11.27;94.50
55517;BME280;41724;51.176;-0.708;2023-04-10T04:31:34;100817.45;;;10.96;93.77
55517;BME280;41724;51.176;-0.708;2023-04-10T04:34:01;100818.65;;;11.28;94.10
55517;BME280;41724;51.176;-0.708;2023-04-10T04:36:28;100819.54;;;11.70;92.00
55517;BME280;41724;51.176;-0.708;2023-04-10T04:38:56;100820.22;;;11.66;91.25
55517;BME280;41724;51.176;-0.708;2023-04-10T04:41:23;100815.23;;;10.95;95.63
55517;BME280;41724;51.176;-0.708;2023-04-10T04:43:50;100803.27;;;11.68;91.52
55517;BME280;41724;51.176;-0.708;2023-04-10T04:46:17;100804.73;;;11.52;92.49
55517;BME280;41724;51.176;-0.708;2023-04-10T04:48:44;100791.78;;;11.99;91.84
55517;BME280;41724;51.176;-0.708;2023-04-10T04:51:11;100788.60;;;12.02;89.06
55517;BME280;41724;51.176;-0.708;2023-04-10T04:53:38;100775.57;;;12.63;86.76
55517;BME280;41724;51.176;-0.708;2023-04-10T04:56:06;100767.42;;;12.99;84.09
55517;BME280;41724;51.176;-0.708;2023-04-10T04:58:34;100763.94;;;12.75;83.32
55517;BME280;41724;51.176;-0.708;2023-04-10T05:01:00;100765.52;;;12.03;86.07
55517;BME280;41724;51.176;-0.708;2023-04-10T05:03:27;100763.49;;;11.52;88.98
55517;BME280;41724;51.176;-0.708;2023-04-10T05:05:55;100754.24;;;11.26;90.36
55517;BME280;41724;51.176;-0.708;2023-04-10T05:08:22;100748.50;;;11.83;88.61
55517;BME280;41724;51.176;-0.708;2023-04-10T05:10:49;100745.18;;;11.26;89.46
55517;BME280;41724;51.176;-0.708;2023-04-10T05:13:16;100740.69;;;11.15;91.92
55517;BME280;41724;51.176;-0.708;2023-04-10T05:15:43;100737.93;;;11.92;88.53
55517;BME280;41724;51.176;-0.708;2023-04-10T05:18:10;100739.10;;;11.75;87.54
55517;BME280;41724;51.176;-0.708;2023-04-10T05:20:37;100727.25;;;12.09;86.49
55517;BME280;41724;51.176;-0.708;2023-04-10T05:23:04;100727.22;;;12.47;85.10
55517;BME280;41724;51.176;-0.708;2023-04-10T05:25:31;100734.48;;;13.07;83.67
55517;BME280;41724;51.176;-0.708;2023-04-10T05:27:58;100731.09;;;12.86;81.26
55517;BME280;41724;51.176;-0.708;2023-04-10T05:30:26;100724.24;;;13.07;81.11
55517;BME280;41724;51.176;-0.708;2023-04-10T05:32:53;100722.44;;;12.99;82.89
55517;BME280;41724;51.176;-0.708;2023-04-10T05:35:20;100720.93;;;13.26;81.70
55517;BME280;41724;51.176;-0.708;2023-04-10T05:37:47;100717.06;;;12.91;81.12
55517;BME280;41724;51.176;-0.708;2023-04-10T05:40:14;100721.65;;;12.47;84.03
55517;BME280;41724;51.176;-0.708;2023-04-10T05:42:41;100721.32;;;11.58;89.59
55517;BME280;41724;51.176;-0.708;2023-04-10T05:45:09;100719.04;;;11.95;87.65
55517;BME280;41724;51.176;-0.708;2023-04-10T05:47:36;100711.15;;;12.21;88.21
55517;BME280;41724;51.176;-0.708;2023-04-10T05:50:04;100708.66;;;11.99;88.07
55517;BME280;41724;51.176;-0.708;2023-04-10T05:52:31;100700.73;;;11.70;88.85
55517;BME280;41724;51.176;-0.708;2023-04-10T05:54:58;100697.87;;;12.00;89.43
55517;BME280;41724;51.176;-0.708;2023-04-10T05:57:25;100702.44;;;11.96;88.62
55517;BME280;41724;51.176;-0.708;2023-04-10T05:59:52;100702.11;;;11.56;90.26
55517;BME280;41724;51.176;-0.708;2023-04-10T06:02:19;100702.66;;;11.26;93.78
55517;BME280;41724;51.176;-0.708;2023-04-10T06:04:46;100693.04;;;10.92;93.74
55517;BME280;41724;51.176;-0.708;2023-04-10T06:07:13;100684.02;;;11.68;90.70
55517;BME280;41724;51.176;-0.708;2023-04-10T06:09:41;100688.55;;;10.89;93.51
55517;BME280;41724;51.176;-0.708;2023-04-10T06:12:08;100682.22;;;10.81;94.34
55517;BME280;41724;51.176;-0.708;2023-04-10T06:14:35;100684.04;;;10.40;97.05
55517;BME280;41724;51.176;-0.708;2023-04-10T06:17:02;100685.14;;;10.44;96.70
55517;BME280;41724;51.176;-0.708;2023-04-10T06:19:29;100677.79;;;11.21;93.19
55517;BME280;41724;51.176;-0.708;2023-04-10T06:21:56;100673.94;;;10.88;90.87
55517;BME280;41724;51.176;-0.708;2023-04-10T06:24:23;100679.21;;;10.02;95.26
55517;BME280;41724;51.176;-0.708;2023-04-10T06:26:50;100678.54;;;9.93;95.45
55517;BME280;41724;51.176;-0.708;2023-04-10T06:29:17;100674.62;;;9.46;98.19
55517;BME280;41724;51.176;-0.708;2023-04-10T06:31:44;100672.27;;;9.89;96.12
55517;BME280;41724;51.176;-0.708;2023-04-10T06:34:12;100671.08;;;9.28;97.89
55517;BME280;41724;51.176;-0.708;2023-04-10T06:36:39;100668.41;;;9.46;99.50
55517;BME280;41724;51.176;-0.708;2023-04-10T06:39:11;100669.19;;;8.77;100.00
55517;BME280;41724;51.176;-0.708;2023-04-10T06:41:38;100666.34;;;9.91;96.17
55517;BME280;41724;51.176;-0.708;2023-04-10T06:44:05;100664.52;;;10.19;95.16
55517;BME280;41724;51.176;-0.708;2023-04-10T06:46:33;100663.31;;;10.38;93.70
55517;BME280;41724;51.176;-0.708;2023-04-10T06:49:00;100659.50;;;10.92;91.90
55517;BME280;41724;51.176;-0.708;2023-04-10T06:51:27;100652.46;;;10.71;91.06
55517;BME280;41724;51.176;-0.708;2023-04-10T06:53:54;100652.85;;;10.56;95.48
55517;BME280;41724;51.176;-0.708;2023-04-10T06:56:21;100652.96;;;10.51;93.42
55517;BME280;41724;51.176;-0.708;2023-04-10T06:58:48;100653.43;;;10.12;97.16
55517;BME280;41724;51.176;-0.708;2023-04-10T07:01:15;100650.32;;;9.99;96.07
55517;BME280;41724;51.176;-0.708;2023-04-10T07:03:42;100645.86;;;10.53;95.97
55517;BME280;41724;51.176;-0.708;2023-04-10T07:06:10;100638.78;;;10.97;93.08
55517;BME280;41724;51.176;-0.708;2023-04-10T07:08:37;100637.68;;;10.73;95.22
55517;BME280;41724;51.176;-0.708;2023-04-10T07:11:04;100641.02;;;10.47;97.79
55517;BME280;41724;51.176;-0.708;2023-04-10T07:13:31;100635.48;;;9.42;100.00
55517;BME280;41724;51.176;-0.708;2023-04-10T07:15:58;100627.27;;;9.54;100.00
55517;BME280;41724;51.176;-0.708;2023-04-10T07:18:25;100621.58;;;10.59;98.71
55517;BME280;41724;51.176;-0.708;2023-04-10T07:20:52;100609.78;;;10.61;97.86
55517;BME280;41724;51.176;-0.708;2023-04-10T07:23:19;100614.95;;;9.89;100.00
55517;BME280;41724;51.176;-0.708;2023-04-10T07:25:46;100604.93;;;10.43;100.00
55517;BME280;41724;51.176;-0.708;2023-04-10T07:28:14;100601.78;;;10.50;100.00
55517;BME280;41724;51.176;-0.708;2023-04-10T07:30:41;100598.79;;;10.25;100.00
55517;BME280;41724;51.176;-0.708;2023-04-10T07:33:08;100602.44;;;9.99;100.00
55517;BME280;41724;51.176;-0.708;2023-04-10T07:35:35;100592.35;;;11.40;97.75
55517;BME280;41724;51.176;-0.708;2023-04-10T07:38:02;100589.55;;;10.97;96.65
55517;BME280;41724;51.176;-0.708;2023-04-10T07:40:29;100582.56;;;10.49;100.00
55517;BME280;41724;51.176;-0.708;2023-04-10T07:42:56;100584.74;;;10.46;100.00
55517;BME280;41724;51.176;-0.708;2023-04-10T07:45:23;100585.09;;;10.82;100.00
55517;BME280;41724;51.176;-0.708;2023-04-10T07:47:50;100572.19;;;9.69;100.00
55517;BME280;41724;51.176;-0.708;2023-04-10T07:50:18;100581.37;;;10.24;100.00
55517;BME280;41724;51.176;-0.708;2023-04-10T07:52:45;100570.63;;;10.65;100.00
55517;BME280;41724;51.176;-0.708;2023-04-10T07:55:12;100562.58;;;10.08;100.00
55517;BME280;41724;51.176;-0.708;2023-04-10T07:57:39;100556.07;;;10.59;100.00
55517;BME280;41724;51.176;-0.708;2023-04-10T08:00:07;100545.17;;;10.38;100.00
55517;BME280;41724;51.176;-0.708;2023-04-10T08:02:34;100547.55;;;10.24;100.00
55517;BME280;41724;51.176;-0.708;2023-04-10T08:05:01;100549.64;;;10.23;100.00
55517;BME280;41724;51.176;-0.708;2023-04-10T08:07:28;100540.33;;;10.96;100.00
55517;BME280;41724;51.176;-0.708;2023-04-10T08:09:55;100541.68;;;11.49;97.28
55517;BME280;41724;51.176;-0.708;2023-04-10T08:12:22;100540.63;;;10.41;100.00
55517;BME280;41724;51.176;-0.708;2023-04-10T08:14:49;100544.81;;;10.49;100.00
55517;BME280;41724;51.176;-0.708;2023-04-10T08:17:16;100546.00;;;10.42;100.00
55517;BME280;41724;51.176;-0.708;2023-04-10T08:19:44;100537.28;;;10.87;100.00
55517;BME280;41724;51.176;-0.708;2023-04-10T08:22:11;100536.57;;;9.96;100.00
55517;BME280;41724;51.176;-0.708;2023-04-10T08:24:38;100529.18;;;10.43;100.00
55517;BME280;41724;51.176;-0.708;2023-04-10T08:27:05;100519.18;;;9.96;100.00
55517;BME280;41724;51.176;-0.708;2023-04-10T08:29:32;100517.89;;;10.37;100.00
55517;BME280;41724;51.176;-0.708;2023-04-10T08:31:59;100510.09;;;10.58;100.00
55517;BME280;41724;51.176;-0.708;2023-04-10T08:34:26;100505.15;;;10.52;100.00
55517;BME280;41724;51.176;-0.708;2023-04-10T08:36:53;100502.88;;;11.47;97.27
55517;BME280;41724;51.176;-0.708;2023-04-10T08:39:20;100492.49;;;11.40;97.72
55517;BME280;41724;51.176;-0.708;2023-04-10T08:41:47;100499.52;;;10.09;100.00
55517;BME280;41724;51.176;-0.708;2023-04-10T08:44:15;100484.17;;;10.04;100.00
55517;BME280;41724;51.176;-0.708;2023-04-10T08:46:44;100488.51;;;11.12;100.00
55517;BME280;41724;51.176;-0.708;2023-04-10T08:49:17;100491.96;;;10.59;100.00
55517;BME280;41724;51.176;-0.708;2023-04-10T08:51:53;100485.07;;;10.62;100.00
55517;BME280;41724;51.176;-0.708;2023-04-10T08:54:26;100489.45;;;10.55;100.00
55517;BME280;41724;51.176;-0.708;2023-04-10T08:56:55;100481.25;;;10.69;100.00
55517;BME280;41724;51.176;-0.708;2023-04-10T08:59:22;100483.75;;;9.88;100.00
55517;BME280;41724;51.176;-0.708;2023-04-10T09:01:49;100479.72;;;9.60;100.00
55517;BME280;41724;51.176;-0.708;2023-04-10T09:04:16;100478.78;;;9.78;100.00
55517;BME280;41724;51.176;-0.708;2023-04-10T09:06:44;100490.87;;;10.07;100.00
55517;BME280;41724;51.176;-0.708;2023-04-10T09:09:11;100484.16;;;9.84;100.00
55517;BME280;41724;51.176;-0.708;2023-04-10T09:12:12;100485.47;;;10.37;100.00
55517;BME280;41724;51.176;-0.708;2023-04-10T09:14:40;100483.11;;;9.81;100.00
55517;BME280;41724;51.176;-0.708;2023-04-10T09:17:17;100477.68;;;9.59;100.00
55517;BME280;41724;51.176;-0.708;2023-04-10T09:19:45;100481.67;;;9.69;100.00
55517;BME280;41724;51.176;-0.708;2023-04-10T09:22:13;100474.94;;;10.04;100.00
55517;BME280;41724;51.176;-0.708;2023-04-10T09:24:42;100467.85;;;10.37;100.00
55517;BME280;41724;51.176;-0.708;2023-04-10T09:27:10;100463.11;;;10.23;100.00
55517;BME280;41724;51.176;-0.708;2023-04-10T09:29:52;100451.68;;;10.66;100.00
55517;BME280;41724;51.176;-0.708;2023-04-10T09:32:36;100450.88;;;10.58;100.00
55517;BME280;41724;51.176;-0.708;2023-04-10T09:35:04;100455.85;;;10.43;100.00
55517;BME280;41724;51.176;-0.708;2023-04-10T09:37:31;100458.09;;;10.54;100.00
55517;BME280;41724;51.176;-0.708;2023-04-10T09:39:59;100460.64;;;11.10;100.00
55517;BME280;41724;51.176;-0.708;2023-04-10T09:42:31;100451.54;;;10.79;100.00
55517;BME280;41724;51.176;-0.708;2023-04-10T09:44:58;100435.52;;;10.27;100.00
55517;BME280;41724;51.176;-0.708;2023-04-10T09:47:26;100437.74;;;10.75;100.00
55517;BME280;41724;51.176;-0.708;2023-04-10T09:49:55;100445.76;;;10.73;100.00
55517;BME280;41724;51.176;-0.708;2023-04-10T09:52:25;100440.21;;;10.56;100.00
55517;BME280;41724;51.176;-0.708;2023-04-10T09:54:54;100452.45;;;9.96;100.00
55517;BME280;41724;51.176;-0.708;2023-04-10T09:57:22;100458.56;;;9.57;100.00
55517;BME280;41724;51.176;-0.708;2023-04-10T09:59:51;100447.03;;;10.24;100.00
55517;BME280;41724;51.176;-0.708;2023-04-10T10:02:20;100443.67;;;9.86;100.00
55517;BME280;41724;51.176;-0.708;2023-04-10T10:04:49;100443.06;;;10.22;100.00
55517;BME280;41724;51.176;-0.708;2023-04-10T10:07:19;100437.80;;;10.21;100.00
55517;BME280;41724;51.176;-0.708;2023-04-10T10:09:50;100437.34;;;9.74;100.00
55517;BME280;41724;51.176;-0.708;2023-04-10T10:12:23;100430.88;;;9.63;100.00
55517;BME280;41724;51.176;-0.708;2023-04-10T10:14:58;100431.60;;;10.01;100.00
55517;BME280;41724;51.176;-0.708;2023-04-10T10:20:13;100417.68;;;9.87;100.00
55517;BME280;41724;51.176;-0.708;2023-04-10T10:22:43;100411.57;;;10.17;100.00
55517;BME280;41724;51.176;-0.708;2023-04-10T10:25:12;100408.23;;;10.10;100.00
55517;BME280;41724;51.176;-0.708;2023-04-10T10:27:41;100401.30;;;10.39;100.00
55517;BME280;41724;51.176;-0.708;2023-04-10T10:30:08;100402.89;;;10.80;100.00
55517;BME280;41724;51.176;-0.708;2023-04-10T10:32:38;100401.45;;;10.62;100.00
55517;BME280;41724;51.176;-0.708;2023-04-10T10:35:07;100406.21;;;10.54;100.00
55517;BME280;41724;51.176;-0.708;2023-04-10T10:37:35;100401.75;;;11.05;100.00
55517;BME280;41724;51.176;-0.708;2023-04-10T10:40:08;100391.44;;;10.19;100.00
55517;BME280;41724;51.176;-0.708;2023-04-10T10:42:49;100395.97;;;11.23;100.00
55517;BME280;41724;51.176;-0.708;2023-04-10T10:45:24;100381.97;;;10.60;100.00
55517;BME280;41724;51.176;-0.708;2023-04-10T10:47:56;100383.18;;;10.91;100.00
55517;BME280;41724;51.176;-0.708;2023-04-10T10:50:23;100378.71;;;11.45;100.00
55517;BME280;41724;51.176;-0.708;2023-04-10T10:52:52;100370.88;;;11.70;100.00
55517;BME280;41724;51.176;-0.708;2023-04-10T10:55:35;100376.75;;;11.65;100.00
55517;BME280;41724;51.176;-0.708;2023-04-10T10:58:04;100373.91;;;10.85;100.00
55517;BME280;41724;51.176;-0.708;2023-04-10T11:01:06;100375.26;;;11.42;100.00
55517;BME280;41724;51.176;-0.708;2023-04-10T11:03:34;100366.39;;;11.77;100.00
55517;BME280;41724;51.176;-0.708;2023-04-10T11:06:04;100384.91;;;12.08;97.98
55517;BME280;41724;51.176;-0.708;2023-04-10T11:08:36;100393.46;;;10.75;100.00
55517;BME280;41724;51.176;-0.708;2023-04-10T11:11:05;100396.37;;;11.17;100.00
55517;BME280;41724;51.176;-0.708;2023-04-10T11:13:32;100393.16;;;11.49;100.00
55517;BME280;41724;51.176;-0.708;2023-04-10T11:16:02;100397.78;;;11.11;98.40
55517;BME280;41724;51.176;-0.708;2023-04-10T11:19:10;100386.85;;;11.36;99.28
55517;BME280;41724;51.176;-0.708;2023-04-10T11:22:00;100384.52;;;11.02;100.00
55517;BME280;41724;51.176;-0.708;2023-04-10T11:24:28;100388.92;;;11.55;94.95
55517;BME280;41724;51.176;-0.708;2023-04-10T11:26:55;100379.17;;;11.31;95.06
55517;BME280;41724;51.176;-0.708;2023-04-10T11:29:37;100385.97;;;11.40;97.87
55517;BME280;41724;51.176;-0.708;2023-04-10T11:32:05;100371.27;;;12.30;92.68
55517;BME280;41724;51.176;-0.708;2023-04-10T11:34:32;100374.70;;;12.09;94.50
55517;BME280;41724;51.176;-0.708;2023-04-10T11:37:00;100383.03;;;11.79;91.79
55517;BME280;41724;51.176;-0.708;2023-04-10T11:39:27;100382.22;;;11.61;92.11
55517;BME280;41724;51.176;-0.708;2023-04-10T11:41:55;100380.65;;;12.19;90.81
55517;BME280;41724;51.176;-0.708;2023-04-10T11:44:28;100382.18;;;13.17;87.79
55517;BME280;41724;51.176;-0.708;2023-04-10T11:46:57;100371.53;;;12.77;87.90
55517;BME280;41724;51.176;-0.708;2023-04-10T11:49:26;100354.15;;;13.37;89.06
55517;BME280;41724;51.176;-0.708;2023-04-10T11:51:54;100348.03;;;13.04;84.10
55517;BME280;41724;51.176;-0.708;2023-04-10T11:54:22;100358.82;;;13.10;85.94
55517;BME280;41724;51.176;-0.708;2023-04-10T11:56:57;100352.77;;;12.48;87.89
55517;BME280;41724;51.176;-0.708;2023-04-10T11:59:25;100352.14;;;13.16;84.99
55517;BME280;41724;51.176;-0.708;2023-04-10T12:01:53;100354.90;;;12.44;85.10
55517;BME280;41724;51.176;-0.708;2023-04-10T12:04:28;100353.21;;;13.60;80.62
55517;BME280;41724;51.176;-0.708;2023-04-10T12:06:56;100363.53;;;13.17;79.84
55517;BME280;41724;51.176;-0.708;2023-04-10T12:09:23;100345.81;;;14.13;78.47
55517;BME280;41724;51.176;-0.708;2023-04-10T12:11:51;100351.03;;;13.10;77.98
55517;BME280;41724;51.176;-0.708;2023-04-10T12:14:19;100337.06;;;12.94;82.58
55517;BME280;41724;51.176;-0.708;2023-04-10T12:16:47;100352.75;;;13.10;82.57
55517;BME280;41724;51.176;-0.708;2023-04-10T12:19:15;100343.55;;;14.12;79.55
55517;BME280;41724;51.176;-0.708;2023-04-10T12:21:43;100344.00;;;14.25;73.39
55517;BME280;41724;51.176;-0.708;2023-04-10T12:24:10;100353.36;;;14.48;73.80
55517;BME280;41724;51.176;-0.708;2023-04-10T12:26:45;100371.34;;;13.67;73.97
55517;BME280;41724;51.176;-0.708;2023-04-10T12:29:13;100367.98;;;13.72;72.99
55517;BME280;41724;51.176;-0.708;2023-04-10T12:31:40;100354.09;;;14.03;70.76
55517;BME280;41724;51.176;-0.708;2023-04-10T12:34:07;100350.72;;;14.56;71.19
55517;BME280;41724;51.176;-0.708;2023-04-10T12:36:34;100358.91;;;13.74;70.63
55517;BME280;41724;51.176;-0.708;2023-04-10T12:39:02;100363.62;;;13.03;73.66
55517;BME280;41724;51.176;-0.708;2023-04-10T12:41:31;100359.95;;;13.36;75.53
55517;BME280;41724;51.176;-0.708;2023-04-10T12:44:07;100361.93;;;13.64;74.86
55517;BME280;41724;51.176;-0.708;2023-04-10T12:46:35;100365.95;;;14.02;71.17
55517;BME280;41724;51.176;-0.708;2023-04-10T12:49:11;100357.58;;;14.08;70.34
55517;BME280;41724;51.176;-0.708;2023-04-10T12:51:43;100436.21;;;13.90;72.08